Aviation Digital Data Service (ADDS)

Output produced by METARs form (1445 UTC 24 September 2021)
found at http://www.aviationweather.gov/metar/data/
 
METAR text: CYYF 241400Z 02005KT 15SM FEW230 08/03 A3026 RMK CI2 SLP252
Conditions at: CYYF (PENTICTON AIRPOR, BC, CA) observed 1400 UTC 24 September 2021
Temperature: 8.0°C (46°F)
Dewpoint: 3.0°C (37°F) [RH = 71%]
Pressure (altimeter): 30.26 inches Hg (1024.8 mb)
[Sea-level pressure: 1025.2 mb]
Winds: from the NNE (20 degrees) at 6 MPH (5 knots; 2.6 m/s)
Visibility: 15 miles (24 km)
Ceiling: at least 12,000 feet AGL
Clouds: few clouds at 23000 feet AGL
Weather: no significant weather observed at this time

METAR text: CYYF 241300Z 02004KT 340V040 15SM FEW230 07/02 A3025 RMK CI1 SLP249
Conditions at: CYYF (PENTICTON AIRPOR, BC, CA) observed 1300 UTC 24 September 2021
Temperature: 7.0°C (45°F)
Dewpoint: 2.0°C (36°F) [RH = 70%]
Pressure (altimeter): 30.25 inches Hg (1024.5 mb)
[Sea-level pressure: 1024.9 mb]
Winds: from the NNE (20 degrees) at 5 MPH (4 knots; 2.1 m/s)
Visibility: 15 miles (24 km)
Ceiling: at least 12,000 feet AGL
Clouds: few clouds at 23000 feet AGL
Weather: no significant weather observed at this time

METAR text: CYYF 241200Z 03003KT 15SM SKC 09/03 A3026 RMK SLP249
Conditions at: CYYF (PENTICTON AIRPOR, BC, CA) observed 1200 UTC 24 September 2021
Temperature: 9.0°C (48°F)
Dewpoint: 3.0°C (37°F) [RH = 66%]
Pressure (altimeter): 30.26 inches Hg (1024.8 mb)
[Sea-level pressure: 1024.9 mb]
Winds: from the NNE (30 degrees) at 3 MPH (3 knots; 1.5 m/s)
Visibility: 15 miles (24 km)
Ceiling: at least 12,000 feet AGL
Clouds: clear skies
Weather: no significant weather observed at this time

Forecast for: CYYF (PENTICTON AIRPOR, BC, CA)
Text: TAF CYYF 241238Z 2413/2501 VRB03KT P6SM SKC
Forecast period: 1300 to 1600 UTC 24 September 2021
Forecast type: FROM: standard forecast or significant change
Winds: variable direction winds at 3 MPH (3 knots; 1.5 m/s)
Visibility: 6 or more miles (10+ km)
Clouds: clear skies
Weather: no significant weather forecast for this period
Text: BECMG 2416/2418 16008KT
Forecast period: 1600 to 1900 UTC 24 September 2021
Forecast type: BECOMING: Conditions expected to become as follows by 1800 UTC 24 September 2021
Winds: from the SSE (160 degrees) at 9 MPH (8 knots; 4.1 m/s)
Visibility: 6 or more miles (10+ km)
Clouds: clear skies
Weather: no significant weather forecast for this period
Text: BECMG 2419/2421 18012KT RMK NXT FCST BY 241900Z
Forecast period: 1900 UTC 24 September 2021 to 0100 UTC 25 September 2021
Forecast type: BECOMING: Conditions expected to become as follows by 2100 UTC 24 September 2021
Winds: from the S (180 degrees) at 14 MPH (12 knots; 6.2 m/s)
Visibility: 6 or more miles (10+ km)
Clouds: clear skies
Weather: no significant weather forecast for this period